Terminal Aerodrome Forecast
Issued by NWS

Home | Current Version | Previous Version | Text Only | Print | Product List | Glossary On
Versions: 1 2 3 4 5 6 7 8 9 10 11 12 13 14
000
FTUS45 KABQ 221739
TAFGUP
TAF
KGUP 221739Z 2218/2318 17012G20KT P6SM FEW080 SCT150
     FM222000 21020G28KT P6SM FEW150
     FM230200 23008KT P6SM SKC
     FM230500 VRB03KT P6SM SKC=

USA.gov is the U.S. government's official web portal to all federal, state and local government web resources and services.